createdAt,value
2023-05-25T00:00:19.098Z,77.14
2023-05-25T00:02:18.283Z,77.14
2023-05-25T00:03:52.171Z,77.28
2023-05-25T00:05:27.677Z,77.33
2023-05-25T00:06:59.478Z,77.29
2023-05-25T00:08:23.439Z,77.41
2023-05-25T00:09:47.584Z,77.25
2023-05-25T00:11:23.518Z,77.26
2023-05-25T00:13:05.701Z,77.33
2023-05-25T00:14:39.137Z,77.29
2023-05-25T00:16:03.137Z,77.35
2023-05-25T00:17:43.883Z,77.48
2023-05-25T00:19:13.098Z,77.40
2023-05-25T00:20:59.211Z,77.11
2023-05-25T00:22:34.324Z,77.12
2023-05-25T00:24:05.860Z,77.07
2023-05-25T00:25:29.945Z,76.99
2023-05-25T00:26:54.038Z,77.00
2023-05-25T00:28:38.105Z,77.01
2023-05-25T00:30:11.369Z,77.19
2023-05-25T00:31:45.045Z,77.43
2023-05-25T00:33:06.902Z,77.37
2023-05-25T00:34:31.634Z,77.31
2023-05-25T00:35:56.250Z,77.52
2023-05-25T00:37:36.861Z,77.45
2023-05-25T00:39:01.280Z,77.33
2023-05-25T00:40:22.908Z,77.51
2023-05-25T00:41:45.180Z,77.42
2023-05-25T00:43:08.087Z,77.27
2023-05-25T00:44:32.086Z,77.03
2023-05-25T00:46:01.575Z,76.96
2023-05-25T00:47:23.439Z,77.15
2023-05-25T00:48:44.941Z,77.22
2023-05-25T00:50:20.974Z,77.22
2023-05-25T00:51:46.586Z,77.33
2023-05-25T00:53:08.920Z,77.42
2023-05-25T00:54:42.411Z,77.36
2023-05-25T00:56:04.215Z,77.46
2023-05-25T00:57:26.221Z,77.50
2023-05-25T00:58:48.373Z,77.44
2023-05-25T01:00:22.595Z,77.44
2023-05-25T01:01:56.720Z,77.42
2023-05-25T01:03:21.707Z,77.63
2023-05-25T01:04:45.542Z,77.62
2023-05-25T01:06:17.297Z,77.81
2023-05-25T01:07:50.612Z,77.88
2023-05-25T01:09:23.756Z,77.93
2023-05-25T01:10:52.818Z,77.96
2023-05-25T01:12:17.492Z,78.02
2023-05-25T01:13:39.254Z,78.15
2023-05-25T01:15:21.537Z,77.99
2023-05-25T01:16:45.994Z,78.03
2023-05-25T01:18:19.822Z,78.13
2023-05-25T01:19:49.545Z,78.11
2023-05-25T01:21:36.097Z,78.15
2023-05-25T01:23:10.504Z,78.21
2023-05-25T01:24:55.824Z,78.06
2023-05-25T01:26:41.312Z,78.12
2023-05-25T01:28:17.213Z,78.18
2023-05-25T01:29:50.650Z,78.23
2023-05-25T01:31:12.445Z,78.27
2023-05-25T01:32:54.050Z,78.18
2023-05-25T01:34:16.255Z,78.32
2023-05-25T01:35:56.922Z,78.25
2023-05-25T01:37:30.926Z,78.45
2023-05-25T01:39:16.392Z,78.43
2023-05-25T01:40:38.208Z,78.28
2023-05-25T01:42:31.266Z,78.35
2023-05-25T01:44:11.913Z,78.45
2023-05-25T01:45:45.889Z,78.54
2023-05-25T01:47:33.165Z,78.37
2023-05-25T01:49:04.361Z,78.39
2023-05-25T01:50:39.783Z,78.38
2023-05-25T01:52:29.706Z,78.29
2023-05-25T01:53:53.985Z,78.47
2023-05-25T01:55:39.311Z,78.50
2023-05-25T01:57:12.962Z,78.52
2023-05-25T01:58:35.223Z,78.57
2023-05-25T02:00:20.055Z,78.60
2023-05-25T02:01:53.931Z,78.73
2023-05-25T02:03:18.076Z,78.83
2023-05-25T02:04:40.354Z,78.71
2023-05-25T02:06:18.530Z,78.70
2023-05-25T02:08:14.427Z,78.78
2023-05-25T02:09:59.481Z,78.70
2023-05-25T02:11:35.656Z,78.80
2023-05-25T02:13:29.269Z,78.72
2023-05-25T02:15:14.665Z,78.86
2023-05-25T02:16:46.192Z,78.83
2023-05-25T02:18:19.823Z,78.93
2023-05-25T02:20:13.107Z,78.94
2023-05-25T02:21:57.425Z,78.99
2023-05-25T02:23:33.283Z,78.92
2023-05-25T02:25:18.328Z,78.98
2023-05-25T02:27:11.558Z,79.10
2023-05-25T02:29:06.293Z,78.86
2023-05-25T02:30:59.309Z,79.04
2023-05-25T02:32:22.438Z,79.07
2023-05-25T02:34:06.448Z,79.42
2023-05-25T02:35:47.161Z,79.37
2023-05-25T02:37:21.506Z,79.60
2023-05-25T02:38:57.704Z,79.51
2023-05-25T02:40:31.077Z,79.74
2023-05-25T02:42:17.009Z,79.98
2023-05-25T02:44:02.725Z,79.63
2023-05-25T02:45:37.759Z,79.68
2023-05-25T02:47:23.797Z,79.88
2023-05-25T02:49:04.476Z,79.89
2023-05-25T02:50:37.158Z,80.19
2023-05-25T02:52:12.845Z,79.92
2023-05-25T02:53:37.506Z,80.12
2023-05-25T02:55:06.256Z,80.10
2023-05-25T02:56:42.981Z,79.99
2023-05-25T02:58:12.012Z,80.32
2023-05-25T02:59:56.487Z,80.38
2023-05-25T03:01:42.602Z,80.52
2023-05-25T03:03:18.253Z,80.34
2023-05-25T03:04:54.809Z,80.51
2023-05-25T03:06:29.578Z,80.46
2023-05-25T03:08:07.253Z,80.53
2023-05-25T03:09:42.104Z,80.64
2023-05-25T03:11:15.534Z,80.51
2023-05-25T03:12:48.097Z,80.71
2023-05-25T03:14:21.903Z,80.61
2023-05-25T03:16:03.091Z,80.58
2023-05-25T03:17:48.129Z,80.59
2023-05-25T03:19:37.919Z,80.33
2023-05-25T03:21:11.596Z,80.34
2023-05-25T03:22:53.103Z,80.27
2023-05-25T03:24:27.057Z,80.39
2023-05-25T03:26:14.536Z,80.60
2023-05-25T03:27:37.195Z,80.80
2023-05-25T03:29:11.363Z,80.92
2023-05-25T03:30:40.867Z,81.00
2023-05-25T03:32:08.095Z,80.94
2023-05-25T03:33:42.549Z,80.89
2023-05-25T03:35:04.561Z,81.12
2023-05-25T03:36:38.689Z,80.97
2023-05-25T03:38:15.185Z,80.84
2023-05-25T03:39:49.040Z,81.11
2023-05-25T03:41:21.177Z,81.22
2023-05-25T03:42:42.920Z,80.87
2023-05-25T03:44:12.533Z,80.98
2023-05-25T03:45:48.577Z,80.86
2023-05-25T03:47:33.896Z,81.10
2023-05-25T03:49:19.920Z,81.11
2023-05-25T03:51:04.450Z,81.06
2023-05-25T03:52:38.239Z,81.10
2023-05-25T03:54:11.911Z,81.32
2023-05-25T03:55:57.407Z,81.43
2023-05-25T03:57:43.122Z,81.49
2023-05-25T03:59:28.433Z,81.43
2023-05-25T04:01:04.308Z,81.54
2023-05-25T04:02:39.997Z,81.59
2023-05-25T04:04:20.921Z,81.52
2023-05-25T04:06:14.289Z,81.33
2023-05-25T04:07:59.601Z,81.19
2023-05-25T04:09:34.322Z,81.11
2023-05-25T04:11:19.468Z,81.16
2023-05-25T04:13:01.284Z,81.41
2023-05-25T04:14:46.354Z,81.30
2023-05-25T04:16:31.817Z,81.48
2023-05-25T04:18:08.418Z,81.50
2023-05-25T04:19:30.882Z,81.56
2023-05-25T04:21:00.161Z,81.65
2023-05-25T04:22:45.802Z,81.77
2023-05-25T04:24:21.849Z,81.65
2023-05-25T04:25:54.836Z,81.57
2023-05-25T04:27:20.367Z,81.35
2023-05-25T04:28:58.393Z,81.43
2023-05-25T04:30:38.407Z,81.87
2023-05-25T04:32:09.638Z,81.80
2023-05-25T04:34:24.831Z,81.94
2023-05-25T04:36:18.406Z,82.19
2023-05-25T04:37:48.444Z,82.32
2023-05-25T04:39:21.888Z,82.42
2023-05-25T04:40:48.494Z,81.83
2023-05-25T04:42:24.786Z,81.67
2023-05-25T04:44:12.939Z,81.88
2023-05-25T04:45:51.066Z,81.86
2023-05-25T04:47:36.700Z,81.81
2023-05-25T04:49:22.817Z,81.53
2023-05-25T04:51:04.726Z,81.42
2023-05-25T04:52:40.190Z,81.46
2023-05-25T04:54:15.948Z,81.18
2023-05-25T04:55:59.244Z,81.22
2023-05-25T04:57:28.630Z,81.53
2023-05-25T04:59:14.876Z,81.71
2023-05-25T05:00:44.500Z,81.48
2023-05-25T05:02:37.324Z,81.78
2023-05-25T05:04:24.496Z,81.45
2023-05-25T05:05:56.036Z,81.50
2023-05-25T05:07:32.987Z,81.47
2023-05-25T05:09:19.858Z,81.43
2023-05-25T05:10:56.432Z,81.31
2023-05-25T05:12:42.322Z,81.41
2023-05-25T05:14:27.725Z,81.24
2023-05-25T05:16:01.545Z,81.18
2023-05-25T05:17:28.323Z,80.79
2023-05-25T05:19:13.863Z,80.67
2023-05-25T05:20:51.076Z,80.67
2023-05-25T05:22:25.114Z,80.63
2023-05-25T05:24:00.949Z,80.69
2023-05-25T05:25:36.889Z,80.41
2023-05-25T05:27:22.508Z,80.20
2023-05-25T05:28:52.500Z,79.97
2023-05-25T05:30:28.263Z,79.82
2023-05-25T05:32:04.910Z,79.74
2023-05-25T05:33:50.588Z,79.63
2023-05-25T05:35:37.261Z,79.14
2023-05-25T05:37:09.227Z,78.97
2023-05-25T05:38:42.941Z,79.16
2023-05-25T05:40:12.916Z,79.19
2023-05-25T05:42:00.455Z,79.28
2023-05-25T05:43:45.625Z,79.06
2023-05-25T05:45:20.149Z,78.99
2023-05-25T05:46:51.851Z,79.19
2023-05-25T05:48:13.794Z,79.27
2023-05-25T05:49:47.534Z,79.11
2023-05-25T05:51:21.356Z,78.95
2023-05-25T05:52:57.157Z,78.86
2023-05-25T05:54:33.379Z,78.66
2023-05-25T05:56:15.660Z,78.49
2023-05-25T05:57:49.323Z,78.55
2023-05-25T05:59:23.157Z,78.45
2023-05-25T06:01:10.472Z,78.32
2023-05-25T06:02:44.528Z,78.24
2023-05-25T06:04:21.041Z,78.43
2023-05-25T06:05:56.708Z,78.21
2023-05-25T06:07:39.652Z,78.26
2023-05-25T06:09:01.474Z,78.13
2023-05-25T06:10:35.350Z,78.29
2023-05-25T06:12:08.833Z,78.12
2023-05-25T06:13:54.041Z,78.22
2023-05-25T06:15:39.744Z,78.13
2023-05-25T06:17:11.411Z,78.06
2023-05-25T06:18:47.789Z,77.83
2023-05-25T06:20:09.997Z,77.63
2023-05-25T06:21:34.006Z,77.45
2023-05-25T06:23:20.577Z,77.08
2023-05-25T06:24:54.571Z,76.99
2023-05-25T06:26:35.460Z,76.91
2023-05-25T06:28:09.646Z,76.83
2023-05-25T06:29:36.034Z,76.53
2023-05-25T06:31:09.672Z,76.61
2023-05-25T06:32:50.590Z,76.34
2023-05-25T06:34:24.308Z,76.55
2023-05-25T06:36:00.352Z,76.45
2023-05-25T06:37:47.124Z,76.19
2023-05-25T06:39:12.893Z,75.79
2023-05-25T06:40:45.162Z,75.64
2023-05-25T06:42:06.984Z,75.42
2023-05-25T06:43:43.093Z,74.91
2023-05-25T06:45:11.105Z,74.55
2023-05-25T06:46:41.440Z,73.86
2023-05-25T06:48:13.199Z,73.52
2023-05-25T06:49:37.895Z,73.36
2023-05-25T06:51:10.897Z,72.99
2023-05-25T06:52:44.296Z,72.79
2023-05-25T06:54:08.548Z,72.12
2023-05-25T06:55:55.798Z,71.58
2023-05-25T06:57:22.448Z,71.51
2023-05-25T06:58:48.863Z,71.15
2023-05-25T07:00:12.885Z,71.13
2023-05-25T07:01:36.881Z,70.75
2023-05-25T07:03:06.618Z,70.85
2023-05-25T07:04:30.462Z,71.05
2023-05-25T07:06:03.098Z,70.69
2023-05-25T07:07:27.372Z,70.92
2023-05-25T07:09:03.190Z,70.89
2023-05-25T07:10:44.763Z,69.95
2023-05-25T07:12:08.788Z,69.53
2023-05-25T07:13:30.900Z,69.85
2023-05-25T07:14:57.204Z,70.22
2023-05-25T07:16:26.389Z,69.69
2023-05-25T07:17:47.827Z,69.60
2023-05-25T07:19:12.118Z,68.58
2023-05-25T07:20:34.393Z,68.08
2023-05-25T07:22:10.041Z,67.78
2023-05-25T07:23:33.777Z,67.94
2023-05-25T07:25:06.936Z,67.59
2023-05-25T07:26:28.738Z,67.25
2023-05-25T07:28:02.228Z,67.19
2023-05-25T07:29:38.210Z,67.08
2023-05-25T07:31:02.479Z,67.22
2023-05-25T07:32:47.754Z,66.34
2023-05-25T07:34:21.085Z,66.87
2023-05-25T07:35:54.501Z,66.77
2023-05-25T07:37:35.446Z,66.51
2023-05-25T07:39:01.792Z,65.96
2023-05-25T07:40:28.190Z,66.18
2023-05-25T07:41:50.094Z,66.17
2023-05-25T07:43:11.714Z,66.38
2023-05-25T07:44:36.042Z,66.52
2023-05-25T07:46:09.893Z,65.96
2023-05-25T07:47:43.447Z,65.70
2023-05-25T07:49:13.138Z,66.16
2023-05-25T07:50:46.726Z,65.45
2023-05-25T07:52:27.965Z,65.30
2023-05-25T07:53:54.172Z,64.89
2023-05-25T07:55:27.924Z,65.14
2023-05-25T07:56:52.064Z,64.93
2023-05-25T07:58:28.938Z,65.00
2023-05-25T08:00:09.358Z,64.35
2023-05-25T08:01:39.484Z,64.91
2023-05-25T08:03:13.644Z,64.35
2023-05-25T08:04:35.665Z,64.18
2023-05-25T08:06:20.852Z,64.69
2023-05-25T08:07:50.651Z,64.10
2023-05-25T08:09:26.908Z,63.92
2023-05-25T08:11:17.385Z,63.80
2023-05-25T08:13:02.590Z,63.43
2023-05-25T08:14:38.366Z,63.46
2023-05-25T08:16:11.836Z,62.84
2023-05-25T08:17:33.615Z,63.33
2023-05-25T08:18:59.907Z,63.31
2023-05-25T08:20:36.579Z,62.89
2023-05-25T08:22:10.098Z,63.04
2023-05-25T08:23:43.049Z,62.65
2023-05-25T08:25:18.469Z,62.67
2023-05-25T08:26:54.395Z,62.01
2023-05-25T08:28:32.113Z,62.10
2023-05-25T08:30:10.681Z,61.74
2023-05-25T08:31:56.793Z,61.83
2023-05-25T08:33:31.827Z,62.15
2023-05-25T08:35:08.365Z,61.33
2023-05-25T08:36:45.759Z,61.21
2023-05-25T08:38:36.285Z,60.61
2023-05-25T08:40:09.563Z,60.74
2023-05-25T08:41:45.573Z,60.29
2023-05-25T08:43:28.154Z,60.53
2023-05-25T08:45:26.359Z,60.22
2023-05-25T08:47:07.668Z,59.87
2023-05-25T08:48:52.787Z,59.85
2023-05-25T08:50:29.863Z,59.67
2023-05-25T08:52:10.434Z,59.16
2023-05-25T08:53:32.506Z,59.15
2023-05-25T08:55:08.964Z,58.90
2023-05-25T08:56:44.955Z,58.81
2023-05-25T08:58:18.628Z,58.71
2023-05-25T08:59:52.073Z,58.81
2023-05-25T09:01:14.211Z,58.73
2023-05-25T09:02:48.182Z,58.65
2023-05-25T09:04:33.688Z,58.38
2023-05-25T09:05:58.034Z,57.74
2023-05-25T09:07:26.976Z,57.66
2023-05-25T09:08:48.934Z,57.95
2023-05-25T09:10:11.310Z,57.72
2023-05-25T09:11:39.784Z,57.33
2023-05-25T09:13:19.080Z,57.74
2023-05-25T09:14:47.729Z,57.81
2023-05-25T09:16:11.137Z,57.14
2023-05-25T09:17:32.601Z,56.93
2023-05-25T09:18:54.523Z,56.78
2023-05-25T09:20:16.689Z,56.73
2023-05-25T09:21:38.240Z,56.63
2023-05-25T09:23:03.228Z,56.86
2023-05-25T09:24:24.914Z,56.64
2023-05-25T09:25:54.176Z,56.95
2023-05-25T09:27:30.285Z,57.63
2023-05-25T09:29:04.060Z,57.37
2023-05-25T09:30:37.616Z,56.86
2023-05-25T09:31:59.292Z,56.88
2023-05-25T09:33:28.553Z,56.82
2023-05-25T09:34:59.644Z,56.27
2023-05-25T09:36:45.027Z,57.09
2023-05-25T09:38:30.666Z,56.48
2023-05-25T09:39:52.877Z,56.29
2023-05-25T09:41:14.629Z,55.68
2023-05-25T09:42:59.405Z,55.34
2023-05-25T09:44:37.537Z,55.66
2023-05-25T09:46:18.215Z,55.62
2023-05-25T09:48:04.305Z,55.87
2023-05-25T09:49:49.554Z,55.23
2023-05-25T09:51:31.334Z,55.42
2023-05-25T09:53:11.814Z,55.09
2023-05-25T09:54:56.766Z,57.30
2023-05-25T09:56:33.514Z,55.30
2023-05-25T09:58:14.393Z,54.54
2023-05-25T09:59:48.006Z,53.91
2023-05-25T10:01:23.443Z,53.83
2023-05-25T10:02:59.272Z,53.58
2023-05-25T10:04:44.635Z,53.33
2023-05-25T10:06:25.484Z,53.30
2023-05-25T10:07:47.147Z,53.26
2023-05-25T10:09:22.753Z,53.54
2023-05-25T10:10:56.100Z,53.33
2023-05-25T10:12:41.373Z,53.65
2023-05-25T10:14:17.641Z,53.31
2023-05-25T10:15:51.135Z,53.64
2023-05-25T10:17:26.748Z,53.48
2023-05-25T10:19:02.179Z,52.81
2023-05-25T10:20:37.996Z,52.18
2023-05-25T10:22:12.127Z,52.16
2023-05-25T10:23:47.788Z,52.28
2023-05-25T10:25:28.532Z,52.43
2023-05-25T10:26:52.613Z,52.46
2023-05-25T10:28:26.781Z,52.78
2023-05-25T10:30:01.370Z,52.90
2023-05-25T10:31:35.108Z,53.39
2023-05-25T10:33:08.884Z,53.51
2023-05-25T10:34:45.018Z,53.80
2023-05-25T10:36:31.303Z,52.86
2023-05-25T10:38:00.582Z,52.89
2023-05-25T10:39:22.669Z,53.15
2023-05-25T10:40:56.164Z,53.68
2023-05-25T10:42:29.953Z,53.70
2023-05-25T10:44:03.049Z,53.33
2023-05-25T10:45:44.432Z,53.26
2023-05-25T10:47:19.180Z,53.28
2023-05-25T10:48:53.001Z,52.94
2023-05-25T10:50:26.194Z,53.43
2023-05-25T10:51:59.906Z,53.66
2023-05-25T10:53:33.336Z,53.70
2023-05-25T10:55:06.652Z,53.84
2023-05-25T10:56:33.135Z,53.69
2023-05-25T10:58:06.737Z,53.58
2023-05-25T10:59:38.855Z,53.84
2023-05-25T11:01:12.617Z,54.10
2023-05-25T11:02:36.462Z,53.55
2023-05-25T11:04:00.517Z,52.86
2023-05-25T11:05:34.187Z,53.03
2023-05-25T11:07:20.387Z,52.69
2023-05-25T11:08:56.272Z,52.93
2023-05-25T11:10:29.898Z,52.00
2023-05-25T11:12:15.513Z,51.87
2023-05-25T11:13:45.103Z,52.10
2023-05-25T11:15:27.276Z,52.63
2023-05-25T11:17:12.177Z,52.46
2023-05-25T11:18:46.283Z,51.88
2023-05-25T11:20:19.968Z,51.32
2023-05-25T11:22:08.501Z,51.93
2023-05-25T11:23:42.175Z,52.05
2023-05-25T11:25:16.174Z,52.16
2023-05-25T11:27:01.029Z,52.66
2023-05-25T11:28:45.840Z,53.08
2023-05-25T11:30:19.510Z,53.20
2023-05-25T11:31:54.760Z,52.65
2023-05-25T11:33:40.229Z,52.39
2023-05-25T11:35:23.380Z,51.81
2023-05-25T11:36:57.732Z,51.10
2023-05-25T11:38:47.348Z,50.40
2023-05-25T11:40:29.148Z,50.51
2023-05-25T11:42:02.189Z,49.92
2023-05-25T11:43:36.781Z,50.14
2023-05-25T11:45:06.123Z,49.63
2023-05-25T11:46:31.051Z,50.14
2023-05-25T11:47:53.028Z,49.81
2023-05-25T11:49:30.134Z,48.76
2023-05-25T11:50:53.729Z,49.20
2023-05-25T11:52:27.672Z,47.28
2023-05-25T11:54:01.579Z,47.61
2023-05-25T11:55:46.742Z,47.37
2023-05-25T11:57:22.506Z,48.22
2023-05-25T11:59:03.175Z,47.39
2023-05-25T12:00:39.892Z,47.07
2023-05-25T12:02:22.534Z,47.90
2023-05-25T12:03:53.959Z,48.75
2023-05-25T12:05:23.392Z,48.61
2023-05-25T12:06:47.740Z,47.81
2023-05-25T12:08:17.007Z,46.48
2023-05-25T12:09:55.510Z,46.24
2023-05-25T12:11:29.448Z,45.93
2023-05-25T12:13:14.296Z,46.14
2023-05-25T12:14:59.025Z,45.09
2023-05-25T12:16:42.375Z,44.92
2023-05-25T12:18:06.262Z,45.16
2023-05-25T12:19:35.768Z,44.38
2023-05-25T12:21:00.737Z,44.67
2023-05-25T12:22:34.604Z,43.90
2023-05-25T12:24:01.378Z,43.88
2023-05-25T12:25:50.268Z,43.81
2023-05-25T12:27:15.097Z,43.80
2023-05-25T12:28:56.350Z,44.33
2023-05-25T12:30:28.136Z,43.58
2023-05-25T12:31:50.164Z,42.96
2023-05-25T12:33:23.380Z,43.50
2023-05-25T12:34:45.107Z,44.24
2023-05-25T12:36:25.351Z,44.55
2023-05-25T12:37:49.537Z,45.57
2023-05-25T12:39:26.284Z,46.58
2023-05-25T12:41:02.144Z,46.57
2023-05-25T12:42:43.142Z,46.76
2023-05-25T12:44:07.348Z,47.14
2023-05-25T12:45:41.124Z,48.09
2023-05-25T12:47:07.115Z,48.18
2023-05-25T12:48:56.197Z,48.84
2023-05-25T12:50:32.581Z,49.28
2023-05-25T12:52:19.046Z,49.56
2023-05-25T12:53:52.410Z,50.29
2023-05-25T12:55:26.158Z,50.53
2023-05-25T12:57:07.058Z,50.81
2023-05-25T12:58:40.948Z,50.10
2023-05-25T13:00:32.293Z,50.17
2023-05-25T13:02:14.736Z,50.23
2023-05-25T13:04:09.292Z,50.32
2023-05-25T13:05:44.499Z,50.72
2023-05-25T13:07:30.107Z,51.27
2023-05-25T13:09:11.155Z,51.79
2023-05-25T13:10:42.725Z,51.29
2023-05-25T13:12:24.675Z,51.10
2023-05-25T13:13:50.753Z,50.29
2023-05-25T13:15:24.270Z,49.65
2023-05-25T13:17:09.118Z,49.82
2023-05-25T13:18:50.332Z,48.66
2023-05-25T13:20:35.415Z,47.48
2023-05-25T13:22:08.579Z,46.42
2023-05-25T13:23:42.064Z,45.29
2023-05-25T13:25:06.190Z,44.30
2023-05-25T13:26:28.656Z,41.91
2023-05-25T13:28:00.145Z,40.85
2023-05-25T13:29:29.283Z,40.20
2023-05-25T13:31:04.817Z,39.87
2023-05-25T13:32:39.173Z,39.82
2023-05-25T13:34:12.994Z,39.17
2023-05-25T13:35:57.457Z,38.86
2023-05-25T13:37:33.916Z,39.26
2023-05-25T13:39:14.668Z,39.95
2023-05-25T13:41:00.194Z,40.66
2023-05-25T13:42:34.554Z,40.98
2023-05-25T13:44:17.421Z,41.37
2023-05-25T13:46:02.865Z,42.13
2023-05-25T13:47:36.938Z,42.95
2023-05-25T13:49:26.421Z,44.49
2023-05-25T13:50:55.668Z,45.22
2023-05-25T13:52:29.710Z,44.42
2023-05-25T13:54:06.158Z,44.93
2023-05-25T13:55:28.146Z,43.86
2023-05-25T13:57:03.711Z,43.77
2023-05-25T13:58:37.605Z,43.89
2023-05-25T14:00:07.110Z,43.55
2023-05-25T14:01:41.101Z,42.97
2023-05-25T14:03:02.917Z,41.89
2023-05-25T14:04:24.796Z,41.88
2023-05-25T14:05:58.242Z,41.03
2023-05-25T14:07:20.130Z,41.27
2023-05-25T14:08:41.386Z,41.74
2023-05-25T14:10:02.552Z,42.13
2023-05-25T14:11:39.599Z,43.31
2023-05-25T14:13:14.210Z,43.68
2023-05-25T14:14:47.695Z,44.17
2023-05-25T14:16:09.554Z,44.54
2023-05-25T14:17:41.421Z,44.69
2023-05-25T14:19:17.128Z,45.82
2023-05-25T14:20:42.897Z,46.11
2023-05-25T14:22:28.339Z,46.45
2023-05-25T14:24:03.768Z,46.63
2023-05-25T14:25:39.694Z,47.04
2023-05-25T14:27:17.429Z,47.41
2023-05-25T14:28:41.562Z,46.86
2023-05-25T14:30:17.202Z,46.91
2023-05-25T14:31:52.949Z,46.78
2023-05-25T14:33:17.242Z,46.23
2023-05-25T14:34:39.477Z,46.44
2023-05-25T14:36:23.733Z,46.90
2023-05-25T14:37:57.191Z,47.05
2023-05-25T14:39:32.866Z,47.02
2023-05-25T14:41:27.305Z,47.20
2023-05-25T14:42:56.720Z,47.31
2023-05-25T14:44:30.373Z,47.10
2023-05-25T14:46:15.659Z,46.72
2023-05-25T14:47:49.725Z,45.53
2023-05-25T14:49:17.297Z,45.87
2023-05-25T14:50:53.547Z,45.46
2023-05-25T14:52:36.412Z,43.27
2023-05-25T14:54:00.366Z,41.46
2023-05-25T14:55:45.582Z,40.48
2023-05-25T14:57:18.949Z,39.09
2023-05-25T14:58:52.226Z,38.70
2023-05-25T15:00:33.392Z,38.38
2023-05-25T15:01:55.472Z,38.73
2023-05-25T15:03:20.300Z,38.70
2023-05-25T15:05:00.732Z,38.53
2023-05-25T15:06:34.638Z,39.25
2023-05-25T15:08:07.353Z,39.60
2023-05-25T15:09:36.893Z,39.39
2023-05-25T15:11:12.453Z,39.51
2023-05-25T15:12:48.751Z,40.03
2023-05-25T15:14:22.326Z,41.23
2023-05-25T15:15:44.818Z,41.46
2023-05-25T15:17:31.365Z,42.06
2023-05-25T15:19:13.874Z,43.44
2023-05-25T15:21:05.712Z,44.38
2023-05-25T15:22:51.210Z,43.55
2023-05-25T15:24:27.248Z,44.12
2023-05-25T15:25:57.379Z,44.13
2023-05-25T15:27:28.975Z,43.59
2023-05-25T15:28:55.267Z,43.22
2023-05-25T15:30:27.736Z,43.06
2023-05-25T15:32:13.301Z,42.95
2023-05-25T15:33:54.292Z,43.01
2023-05-25T15:35:39.203Z,42.29
2023-05-25T15:37:13.143Z,41.95
2023-05-25T15:38:49.453Z,41.61
2023-05-25T15:40:34.817Z,42.52
2023-05-25T15:42:21.108Z,43.36
2023-05-25T15:43:48.728Z,44.28
2023-05-25T15:45:24.956Z,44.42
2023-05-25T15:46:49.096Z,44.68
2023-05-25T15:48:24.219Z,44.95
2023-05-25T15:50:02.286Z,45.42
2023-05-25T15:51:35.974Z,45.87
2023-05-25T15:53:21.689Z,44.71
2023-05-25T15:55:07.048Z,44.98
2023-05-25T15:56:40.634Z,45.20
2023-05-25T15:58:20.888Z,45.88
2023-05-25T16:00:02.798Z,46.90
2023-05-25T16:01:27.459Z,47.28
2023-05-25T16:03:02.004Z,47.75
2023-05-25T16:04:26.234Z,48.33
2023-05-25T16:06:12.063Z,48.92
2023-05-25T16:07:48.660Z,48.94
2023-05-25T16:09:22.145Z,49.15
2023-05-25T16:11:03.023Z,49.40
2023-05-25T16:12:45.524Z,49.72
2023-05-25T16:14:19.065Z,50.29
2023-05-25T16:15:50.051Z,50.31
2023-05-25T16:17:35.766Z,50.57
2023-05-25T16:19:14.115Z,51.23
2023-05-25T16:21:08.462Z,51.47
2023-05-25T16:22:41.966Z,51.43
2023-05-25T16:24:27.262Z,51.08
2023-05-25T16:26:15.589Z,51.25
2023-05-25T16:27:49.176Z,51.49
2023-05-25T16:29:22.654Z,50.84
2023-05-25T16:30:56.331Z,51.12
2023-05-25T16:32:32.691Z,50.91
2023-05-25T16:34:08.600Z,50.97
2023-05-25T16:36:03.333Z,50.66
2023-05-25T16:37:58.326Z,50.74
2023-05-25T16:39:34.654Z,51.06
2023-05-25T16:41:14.563Z,51.31
2023-05-25T16:43:02.481Z,50.98
2023-05-25T16:44:36.353Z,50.90
2023-05-25T16:46:17.248Z,51.21
2023-05-25T16:47:49.410Z,51.70
2023-05-25T16:49:34.862Z,51.87
2023-05-25T16:51:20.357Z,51.96
2023-05-25T16:52:52.603Z,51.86
2023-05-25T16:54:26.295Z,51.94
2023-05-25T16:56:00.149Z,52.25
2023-05-25T16:57:33.795Z,52.50
2023-05-25T16:59:00.021Z,52.45
2023-05-25T17:00:45.248Z,52.79
2023-05-25T17:02:26.200Z,52.55
2023-05-25T17:04:08.772Z,52.90
2023-05-25T17:05:42.228Z,52.78
2023-05-25T17:07:16.364Z,52.81
2023-05-25T17:08:52.305Z,53.03
2023-05-25T17:10:37.734Z,53.14
2023-05-25T17:12:12.746Z,53.10
2023-05-25T17:13:58.750Z,53.46
2023-05-25T17:15:44.725Z,53.77
2023-05-25T17:17:34.637Z,53.49
2023-05-25T17:19:19.735Z,53.55
2023-05-25T17:20:53.698Z,53.65
2023-05-25T17:22:16.129Z,53.54
2023-05-25T17:23:50.176Z,54.00
2023-05-25T17:25:21.896Z,53.98
2023-05-25T17:27:01.216Z,53.89
2023-05-25T17:28:48.288Z,54.29
2023-05-25T17:30:10.559Z,54.23
2023-05-25T17:31:46.259Z,54.20
2023-05-25T17:33:27.788Z,54.05
2023-05-25T17:34:52.942Z,54.36
2023-05-25T17:36:27.029Z,54.37
2023-05-25T17:37:51.341Z,54.20
2023-05-25T17:39:24.875Z,54.38
2023-05-25T17:41:06.027Z,54.68
2023-05-25T17:42:42.194Z,54.60
2023-05-25T17:44:27.605Z,54.44
2023-05-25T17:46:01.458Z,54.58
2023-05-25T17:47:35.891Z,54.70
2023-05-25T17:49:09.797Z,54.76
2023-05-25T17:50:43.490Z,54.84
2023-05-25T17:52:29.492Z,55.16
2023-05-25T17:54:06.606Z,55.14
2023-05-25T17:55:31.307Z,55.51
2023-05-25T17:57:04.872Z,55.33
2023-05-25T17:58:50.430Z,55.48
2023-05-25T18:00:26.657Z,55.78
2023-05-25T18:01:58.110Z,55.66
2023-05-25T18:03:41.164Z,55.84
2023-05-25T18:05:05.784Z,55.64
2023-05-25T18:06:52.180Z,55.94
2023-05-25T18:08:25.414Z,55.92
2023-05-25T18:09:55.034Z,56.25
2023-05-25T18:11:41.913Z,56.24
2023-05-25T18:13:27.636Z,56.08
2023-05-25T18:15:08.568Z,56.35
2023-05-25T18:16:42.475Z,56.66
2023-05-25T18:18:23.325Z,56.58
2023-05-25T18:19:56.740Z,56.74
2023-05-25T18:21:33.392Z,56.96
2023-05-25T18:23:04.497Z,57.13
2023-05-25T18:24:50.450Z,56.88
2023-05-25T18:26:36.640Z,57.03
2023-05-25T18:28:23.622Z,57.16
2023-05-25T18:30:17.998Z,57.49
2023-05-25T18:31:57.243Z,57.50
2023-05-25T18:33:42.687Z,57.43
2023-05-25T18:35:20.345Z,57.48
2023-05-25T18:36:44.681Z,57.58
2023-05-25T18:38:18.464Z,57.65
2023-05-25T18:40:11.666Z,57.98
2023-05-25T18:41:43.133Z,57.97
2023-05-25T18:43:19.568Z,58.00
2023-05-25T18:45:05.816Z,58.01
2023-05-25T18:46:52.344Z,58.15
2023-05-25T18:48:29.716Z,58.28
2023-05-25T18:50:16.341Z,58.43
2023-05-25T18:51:58.084Z,58.60
2023-05-25T18:53:44.861Z,58.46
2023-05-25T18:55:38.283Z,58.66
2023-05-25T18:57:21.046Z,58.70
2023-05-25T18:58:54.573Z,58.78
2023-05-25T19:00:16.462Z,58.98
2023-05-25T19:01:41.469Z,58.98
2023-05-25T19:03:22.332Z,59.22
2023-05-25T19:05:08.118Z,59.11
2023-05-25T19:06:42.865Z,59.14
2023-05-25T19:08:16.136Z,59.23
2023-05-25T19:09:42.400Z,59.28
2023-05-25T19:11:15.726Z,59.21
2023-05-25T19:12:49.766Z,59.33
2023-05-25T19:14:31.125Z,59.34
2023-05-25T19:15:55.293Z,59.68
2023-05-25T19:17:32.174Z,59.79
2023-05-25T19:19:16.207Z,59.74
2023-05-25T19:20:57.241Z,59.88
2023-05-25T19:22:42.528Z,59.99
2023-05-25T19:24:18.993Z,60.17
2023-05-25T19:25:48.045Z,60.17
2023-05-25T19:27:23.318Z,60.47
2023-05-25T19:28:57.369Z,60.39
2023-05-25T19:30:45.333Z,60.39
2023-05-25T19:32:26.058Z,60.47
2023-05-25T19:33:59.233Z,60.68
2023-05-25T19:35:32.613Z,60.76
2023-05-25T19:37:11.539Z,60.87
2023-05-25T19:38:46.255Z,60.82
2023-05-25T19:40:11.736Z,61.13
2023-05-25T19:41:45.869Z,61.16
2023-05-25T19:43:31.235Z,61.39
2023-05-25T19:45:10.769Z,61.40
2023-05-25T19:47:05.396Z,61.40
2023-05-25T19:48:51.755Z,61.34
2023-05-25T19:50:15.667Z,61.30
2023-05-25T19:52:10.774Z,61.42
2023-05-25T19:53:58.150Z,61.27
2023-05-25T19:55:44.183Z,61.23
2023-05-25T19:57:18.594Z,61.17
2023-05-25T19:58:52.483Z,61.00
2023-05-25T20:00:28.483Z,60.89
2023-05-25T20:02:05.227Z,60.70
2023-05-25T20:03:51.941Z,60.76
2023-05-25T20:05:37.402Z,60.79
2023-05-25T20:07:18.138Z,60.61
2023-05-25T20:08:51.953Z,60.58
2023-05-25T20:10:14.137Z,60.41
2023-05-25T20:11:46.015Z,60.18
2023-05-25T20:13:32.712Z,60.22
2023-05-25T20:15:18.945Z,60.03
2023-05-25T20:16:55.783Z,59.89
2023-05-25T20:18:28.032Z,59.88
2023-05-25T20:19:54.187Z,59.67
2023-05-25T20:21:20.943Z,59.58
2023-05-25T20:22:57.783Z,59.62
2023-05-25T20:24:21.971Z,59.60
2023-05-25T20:25:47.207Z,59.56
2023-05-25T20:27:19.060Z,59.43
2023-05-25T20:28:48.755Z,59.27
2023-05-25T20:30:26.261Z,59.16